Castine, ME (04420)

8:34 AM EST on December 06, 2016 (GMT -0500)
Maine Maritime Academy | | Change Station

Elev 0 ft 44.39 °N, 68.80 °W | Updated 10 seconds ago

Clear
Clear
28.7 °F
Feels Like 22 °F
N
5.8
Wind Variable Wind from North
Gusts 10.0 mph

Today
High -- | Low -- °F
--% Chance of Precip.
Yesterday
High -- | Low -- °F
Precip. -- in
Pressure 30.11 in
Visibility 10.0 miles
Clouds Clear
Windchill 22 °F
Dew Point 28 °F
Humidity 91%
Rainfall 0.00 in
Snow Depth Not available.
6:56 AM 3:55 PM
Waxing Crescent, 41% visible
METAR KBHB 061256Z AUTO 32006KT 10SM CLR M03/M04 A3009 RMK AO2 SLP195 T10331044 FZRANO
Pressure 30.11 in
Visibility 10.0 miles
Clouds Clear
Windchill 22 °F
Dew Point 28 °F
Humidity 91%
Rainfall 0.00 in
Snow Depth Not available.
6:56 AM 3:55 PM
Waxing Crescent, 41% visible
METAR KBHB 061256Z AUTO 32006KT 10SM CLR M03/M04 A3009 RMK AO2 SLP195 T10331044 FZRANO

10-Day Weather Forecast

Almanac

Astronomy

Dec. 06, 2016 Rise Set
Actual Time
Civil Twilight
Nautical Twilight
Astronomical Twilight
Moon
Length of Visible Light
Length of Day
Tomorrow will be .
, % of the Moon is Illuminated

Today's Extremes

State Highs State Lows

Community

WunderPhotos

Upload Photos

1,955,945 photos uploaded!

WunderBlog® & News

Nearby

Air Quality

  Air Quality AQ Index Pollutant
Not available.

Snow Depth

Station Depth Elevation

Earthquake Activity

City Distance Mag. Time & Date
Minimum magnitude displayed is 2.5.

Coastal Water Temperatures

Place Temperature

Stations

Nearby Weather Stations

Station Location Temp. Windchill Dew Point Humidity Wind Precip. Elev Updated Type
                   

Watches & Warnings

There are currently no watches in effect.